createdAt,value
2018-04-02T00:01:40.205Z,28.43
2018-04-02T00:04:07.662Z,47.23
2018-04-02T00:06:35.132Z,38.83
2018-04-02T00:09:02.598Z,35.57
2018-04-02T00:11:30.818Z,35.33
2018-04-02T00:13:58.277Z,35.30
2018-04-02T00:16:25.806Z,32.67
2018-04-02T00:18:53.233Z,33.67
2018-04-02T00:21:20.681Z,35.43
2018-04-02T00:23:48.166Z,32.97
2018-04-02T00:26:16.387Z,36.73
2018-04-02T00:28:43.855Z,42.63
2018-04-02T00:31:11.318Z,29.93
2018-04-02T00:33:38.779Z,33.00
2018-04-02T00:36:06.231Z,24.90
2018-04-02T00:38:33.697Z,32.93
2018-04-02T00:41:02.667Z,29.63
2018-04-02T00:43:30.134Z,32.53
2018-04-02T00:45:57.586Z,30.77
2018-04-02T00:48:25.040Z,29.37
2018-04-02T00:50:52.498Z,35.13
2018-04-02T00:53:19.945Z,40.67
2018-04-02T00:55:47.414Z,35.80
2018-04-02T00:58:14.873Z,47.40
2018-04-02T01:00:42.333Z,35.77
2018-04-02T01:03:09.804Z,35.63
2018-04-02T01:05:37.250Z,42.43
2018-04-02T01:08:04.710Z,44.80
2018-04-02T01:10:32.173Z,44.23
2018-04-02T01:12:59.638Z,46.03
2018-04-02T01:15:27.856Z,42.80
2018-04-02T01:17:55.336Z,43.87
2018-04-02T01:20:22.809Z,51.83
2018-04-02T01:22:50.274Z,48.90
2018-04-02T01:25:17.730Z,45.93
2018-04-02T01:27:45.198Z,43.40
2018-04-02T01:30:13.418Z,43.70
2018-04-02T01:32:40.895Z,43.83
2018-04-02T01:35:08.365Z,48.63
2018-04-02T01:37:35.860Z,48.73
2018-04-02T01:40:03.338Z,48.43
2018-04-02T01:42:30.798Z,41.80
2018-04-02T01:44:58.258Z,51.50
2018-04-02T01:47:25.730Z,46.47
2018-04-02T01:49:53.194Z,42.20
2018-04-02T01:52:20.676Z,58.37
2018-04-02T01:54:48.488Z,52.97
2018-04-02T01:57:15.945Z,64.10
2018-04-02T01:59:43.418Z,54.70
2018-04-02T02:02:10.866Z,58.00
2018-04-02T02:04:38.326Z,50.40
2018-04-02T02:07:05.785Z,52.73
2018-04-02T02:09:33.246Z,64.30
2018-04-02T02:12:00.710Z,55.60
2018-04-02T02:14:28.180Z,54.43
2018-04-02T02:16:55.656Z,59.00
2018-04-02T02:19:23.122Z,48.97
2018-04-02T02:21:51.361Z,60.83
2018-04-02T02:24:18.801Z,62.43
2018-04-02T02:26:46.275Z,68.97
2018-04-02T02:29:13.737Z,64.70
2018-04-02T02:31:41.215Z,65.83
2018-04-02T02:34:08.669Z,63.17
2018-04-02T02:36:36.134Z,68.97
2018-04-02T02:39:04.371Z,70.70
2018-04-02T02:41:31.841Z,68.77
2018-04-02T02:43:59.306Z,66.13
2018-04-02T02:46:26.757Z,66.43
2018-04-02T02:48:54.230Z,60.67
2018-04-02T02:51:22.454Z,69.73
2018-04-02T02:53:49.911Z,71.83
2018-04-02T02:56:17.384Z,69.83
2018-04-02T02:58:44.835Z,72.23
2018-04-02T03:01:12.293Z,77.03
2018-04-02T03:03:40.778Z,63.47
2018-04-02T03:06:08.255Z,66.20
2018-04-02T03:08:35.740Z,61.27
2018-04-02T03:11:03.969Z,67.07
2018-04-02T03:13:31.445Z,70.10
2018-04-02T03:15:58.917Z,92.60
2018-04-02T03:18:27.135Z,75.67
2018-04-02T03:20:54.607Z,76.23
2018-04-02T03:23:22.073Z,64.30
2018-04-02T03:25:49.526Z,68.33
2018-04-02T03:28:17.724Z,64.37
2018-04-02T03:30:45.192Z,59.43
2018-04-02T03:33:12.650Z,68.47
2018-04-02T03:35:40.883Z,62.50
2018-04-02T03:38:08.347Z,63.17
2018-04-02T03:40:36.084Z,66.07
2018-04-02T03:43:03.542Z,69.40
2018-04-02T03:45:31.006Z,72.73
2018-04-02T03:47:58.473Z,71.17
2018-04-02T03:50:25.938Z,69.53
2018-04-02T03:52:53.406Z,77.53
2018-04-02T03:55:20.889Z,76.67
2018-04-02T03:57:50.105Z,75.97
2018-04-02T04:00:17.581Z,75.97
2018-04-02T04:02:45.042Z,73.93
2018-04-02T04:05:12.503Z,73.53
2018-04-02T04:07:39.966Z,75.30
2018-04-02T04:10:07.447Z,82.90
2018-04-02T04:12:34.914Z,67.20
2018-04-02T04:15:02.399Z,60.60
2018-04-02T04:17:30.486Z,77.00
2018-04-02T04:19:57.949Z,68.20
2018-04-02T04:22:25.415Z,65.30
2018-04-02T04:24:52.876Z,72.33
2018-04-02T04:27:20.341Z,74.47
2018-04-02T04:29:47.813Z,74.90
2018-04-02T04:32:15.274Z,74.37
2018-04-02T04:34:42.742Z,77.27
2018-04-02T04:37:10.190Z,72.63
2018-04-02T04:39:37.655Z,72.43
2018-04-02T04:42:05.124Z,73.57
2018-04-02T04:44:33.350Z,71.37
2018-04-02T04:47:00.808Z,67.90
2018-04-02T04:49:28.274Z,67.40
2018-04-02T04:51:55.732Z,69.17
2018-04-02T04:54:23.181Z,72.27
2018-04-02T04:56:50.646Z,65.73
2018-04-02T04:59:18.105Z,67.40
2018-04-02T05:01:45.578Z,71.97
2018-04-02T05:04:13.042Z,72.10
2018-04-02T05:06:40.510Z,67.40
2018-04-02T05:09:08.773Z,70.27
2018-04-02T05:11:36.234Z,69.57
2018-04-02T05:14:04.470Z,80.73
2018-04-02T05:16:31.937Z,70.20
2018-04-02T05:18:59.393Z,81.20
2018-04-02T05:21:26.853Z,86.87
2018-04-02T05:23:54.323Z,69.33
2018-04-02T05:26:21.777Z,77.07
2018-04-02T05:28:49.236Z,77.90
2018-04-02T05:31:16.754Z,86.57
2018-04-02T05:33:44.215Z,72.80
2018-04-02T05:36:11.734Z,77.03
2018-04-02T05:38:39.961Z,72.03
2018-04-02T05:41:07.422Z,75.20
2018-04-02T05:43:34.885Z,77.73
2018-04-02T05:46:02.355Z,92.87
2018-04-02T05:48:30.694Z,67.57
2018-04-02T05:50:58.182Z,76.80
2018-04-02T05:53:25.626Z,88.70
2018-04-02T05:55:53.092Z,76.17
2018-04-02T05:58:20.550Z,89.47
2018-04-02T06:00:48.373Z,98.07
2018-04-02T06:03:15.866Z,82.60
2018-04-02T06:05:43.330Z,98.10
2018-04-02T06:08:10.803Z,87.83
2018-04-02T06:10:38.250Z,88.97
2018-04-02T06:13:05.717Z,90.20
2018-04-02T06:15:33.178Z,93.63
2018-04-02T06:18:01.395Z,92.90
2018-04-02T06:20:28.885Z,86.10
2018-04-02T06:22:56.359Z,83.60
2018-04-02T06:25:23.822Z,104.93
2018-04-02T06:27:52.058Z,95.17
2018-04-02T06:30:19.525Z,101.07
2018-04-02T06:32:46.998Z,84.70
2018-04-02T06:35:14.476Z,96.20
2018-04-02T06:37:42.756Z,93.00
2018-04-02T06:40:10.970Z,88.20
2018-04-02T06:42:38.433Z,88.67
2018-04-02T06:45:05.937Z,79.03
2018-04-02T06:47:33.350Z,83.57
2018-04-02T06:50:01.735Z,94.30
2018-04-02T06:52:29.189Z,84.03
2018-04-02T06:54:56.646Z,70.47
2018-04-02T06:57:24.117Z,88.60
2018-04-02T06:59:51.600Z,89.17
2018-04-02T07:02:19.826Z,84.10
2018-04-02T07:04:47.293Z,71.07
2018-04-02T07:07:14.784Z,78.90
2018-04-02T07:09:42.250Z,80.40
2018-04-02T07:12:10.491Z,76.97
2018-04-02T07:14:37.953Z,64.43
2018-04-02T07:17:05.474Z,67.23
2018-04-02T07:19:32.985Z,72.53
2018-04-02T07:22:00.493Z,71.30
2018-04-02T07:24:28.725Z,69.27
2018-04-02T07:26:56.948Z,67.47
2018-04-02T07:29:24.583Z,72.23
2018-04-02T07:31:52.046Z,58.37
2018-04-02T07:34:19.512Z,62.23
2018-04-02T07:36:46.981Z,69.60
2018-04-02T07:39:14.647Z,67.00
2018-04-02T07:41:42.117Z,59.23
2018-04-02T07:44:09.765Z,68.03
2018-04-02T07:46:37.221Z,64.80
2018-04-02T07:49:04.844Z,63.47
2018-04-02T07:51:32.338Z,58.07
2018-04-02T07:53:59.809Z,61.73
2018-04-02T07:56:27.366Z,57.70
2018-04-02T07:58:54.828Z,52.90
2018-04-02T08:01:22.326Z,60.10
2018-04-02T08:03:50.626Z,56.50
2018-04-02T08:06:18.109Z,57.83
2018-04-02T08:08:45.591Z,53.00
2018-04-02T08:11:13.041Z,58.77
2018-04-02T08:13:40.512Z,60.57
2018-04-02T08:16:08.003Z,61.57
2018-04-02T08:18:35.504Z,56.13
2018-04-02T08:21:02.994Z,54.33
2018-04-02T08:23:31.216Z,56.00
2018-04-02T08:25:58.665Z,59.77
2018-04-02T08:28:26.147Z,55.80
2018-04-02T08:30:53.604Z,55.90
2018-04-02T08:33:21.180Z,50.60
2018-04-02T08:35:48.644Z,48.50
2018-04-02T08:38:16.118Z,49.80
2018-04-02T08:40:44.350Z,53.03
2018-04-02T08:43:11.905Z,54.57
2018-04-02T08:45:39.496Z,50.63
2018-04-02T08:48:07.722Z,46.53
2018-04-02T08:50:35.170Z,47.20
2018-04-02T08:53:02.650Z,47.13
2018-04-02T08:55:30.280Z,50.03
2018-04-02T08:57:57.738Z,50.27
2018-04-02T09:00:25.214Z,50.10
2018-04-02T09:02:52.684Z,51.87
2018-04-02T09:05:20.165Z,48.90
2018-04-02T09:07:47.674Z,52.30
2018-04-02T09:10:15.238Z,48.13
2018-04-02T09:12:42.697Z,44.13
2018-04-02T09:15:10.586Z,47.60
2018-04-02T09:17:38.044Z,46.07
2018-04-02T09:20:05.523Z,42.43
2018-04-02T09:22:32.982Z,40.10
2018-04-02T09:25:00.474Z,45.33
2018-04-02T09:27:27.975Z,40.30
2018-04-02T09:29:55.428Z,41.23
2018-04-02T09:32:22.908Z,43.43
2018-04-02T09:34:50.354Z,40.20
2018-04-02T09:37:17.830Z,43.77
2018-04-02T09:39:46.078Z,38.13
2018-04-02T09:42:13.524Z,41.73
2018-04-02T09:44:40.997Z,44.07
2018-04-02T09:47:09.080Z,45.43
2018-04-02T09:49:36.530Z,46.33
2018-04-02T09:52:04.005Z,40.30
2018-04-02T09:54:32.243Z,38.13
2018-04-02T09:56:59.701Z,38.60
2018-04-02T09:59:27.235Z,40.17
2018-04-02T10:04:55.840Z,36.63
2018-04-02T10:07:23.259Z,38.97
2018-04-02T10:09:51.533Z,32.90
2018-04-02T10:12:19.766Z,34.70
2018-04-02T10:14:47.238Z,38.10
2018-04-02T10:17:14.701Z,36.00
2018-04-02T10:19:42.170Z,32.50
2018-04-02T10:22:09.621Z,31.63
2018-04-02T10:24:37.094Z,33.40
2018-04-02T10:27:05.333Z,29.83
2018-04-02T10:29:32.866Z,34.70
2018-04-02T10:32:01.062Z,32.20
2018-04-02T10:34:28.513Z,34.20
2018-04-02T10:36:56.031Z,35.10
2018-04-02T10:39:23.824Z,34.80
2018-04-02T10:41:51.290Z,36.00
2018-04-02T10:44:18.765Z,38.60
2018-04-02T10:46:46.270Z,29.73
2018-04-02T10:49:13.734Z,34.23
2018-04-02T10:51:41.227Z,28.20
2018-04-02T10:54:08.687Z,29.40
2018-04-02T10:56:36.149Z,28.93
2018-04-02T10:59:03.605Z,30.23
2018-04-02T11:01:31.073Z,31.60
2018-04-02T11:03:58.530Z,26.67
2018-04-02T11:06:25.974Z,32.80
2018-04-02T11:08:53.454Z,22.20
2018-04-02T11:11:20.978Z,28.90
2018-04-02T11:13:48.472Z,25.60
2018-04-02T11:16:16.743Z,25.60
2018-04-02T11:18:44.215Z,21.83
2018-04-02T11:21:12.463Z,22.23
2018-04-02T11:23:39.953Z,30.13
2018-04-02T11:26:07.398Z,23.97
2018-04-02T11:28:36.634Z,22.80
2018-04-02T11:31:04.118Z,21.83
2018-04-02T11:33:31.577Z,21.57
2018-04-02T11:35:59.045Z,24.30
2018-04-02T11:38:26.542Z,27.37
2018-04-02T11:40:54.008Z,24.40
2018-04-02T11:43:21.497Z,25.43
2018-04-02T11:45:48.964Z,20.97
2018-04-02T11:48:16.426Z,25.00
2018-04-02T11:50:43.894Z,24.30
2018-04-02T11:53:11.375Z,21.33
2018-04-02T11:55:38.831Z,25.47
2018-04-02T11:58:07.053Z,20.00
2018-04-02T12:00:34.525Z,22.33
2018-04-02T12:03:02.007Z,18.07
2018-04-02T12:05:30.229Z,19.77
2018-04-02T12:07:57.710Z,22.90
2018-04-02T12:10:25.177Z,17.23
2018-04-02T12:12:52.649Z,16.40
2018-04-02T12:15:20.898Z,26.10
2018-04-02T12:17:48.374Z,14.90
2018-04-02T12:20:16.643Z,18.30
2018-04-02T12:22:44.103Z,15.53
2018-04-02T12:25:11.580Z,14.47
2018-04-02T12:27:39.833Z,14.40
2018-04-02T12:30:07.323Z,14.07
2018-04-02T12:32:34.816Z,16.23
2018-04-02T12:35:02.281Z,14.80
2018-04-02T12:37:29.814Z,14.97
2018-04-02T12:39:57.279Z,13.13
2018-04-02T12:42:24.766Z,13.03
2018-04-02T12:44:52.219Z,13.60
2018-04-02T12:47:19.693Z,12.47
2018-04-02T12:49:47.158Z,14.17
2018-04-02T12:52:14.625Z,13.30
2018-04-02T12:54:42.858Z,13.33
2018-04-02T12:57:10.314Z,13.13
2018-04-02T12:59:37.779Z,22.23
2018-04-02T13:02:05.253Z,11.43
2018-04-02T13:04:32.713Z,13.63
2018-04-02T13:07:00.232Z,15.37
2018-04-02T13:09:27.685Z,14.03
2018-04-02T13:11:55.147Z,10.50
2018-04-02T13:14:23.406Z,16.70
2018-04-02T13:16:50.871Z,12.70
2018-04-02T13:19:18.392Z,10.07
2018-04-02T13:21:45.814Z,11.50
2018-04-02T13:24:13.291Z,13.93
2018-04-02T13:26:40.754Z,9.57
2018-04-02T13:29:08.984Z,12.63
2018-04-02T13:31:36.492Z,9.73
2018-04-02T13:34:03.910Z,11.20
2018-04-02T13:36:31.381Z,8.67
2018-04-02T13:38:58.865Z,11.90
2018-04-02T13:41:27.110Z,10.00
2018-04-02T13:43:54.590Z,10.80
2018-04-02T13:46:22.830Z,7.97
2018-04-02T13:48:50.306Z,10.33
2018-04-02T13:51:17.780Z,21.00
2018-04-02T13:53:45.872Z,7.63
2018-04-02T13:56:13.342Z,9.53
2018-04-02T13:58:40.842Z,8.03
2018-04-02T14:01:09.078Z,8.30
2018-04-02T14:03:36.557Z,8.30
2018-04-02T14:06:04.107Z,9.10
2018-04-02T14:08:32.322Z,8.00
2018-04-02T14:10:59.796Z,5.80
2018-04-02T14:13:27.269Z,5.10
2018-04-02T14:15:54.714Z,7.10
2018-04-02T14:18:22.168Z,4.20
2018-04-02T14:20:49.651Z,5.20
2018-04-02T14:23:17.109Z,3.80
2018-04-02T14:25:44.566Z,6.27
2018-04-02T14:28:12.459Z,4.47
2018-04-02T14:30:39.916Z,3.17
2018-04-02T14:33:07.454Z,4.63
2018-04-02T14:35:34.947Z,7.63
2018-04-02T14:38:02.398Z,8.00
2018-04-02T14:40:29.855Z,5.13
2018-04-02T14:42:57.342Z,5.43
2018-04-02T14:45:25.570Z,4.93
2018-04-02T14:47:53.278Z,4.23
2018-04-02T14:50:21.513Z,5.00
2018-04-02T14:52:48.986Z,7.93
2018-04-02T14:55:16.701Z,6.20
2018-04-02T14:57:45.910Z,5.23
2018-04-02T15:00:13.647Z,4.23
2018-04-02T15:02:41.101Z,6.63
2018-04-02T15:05:08.578Z,5.63
2018-04-02T15:07:36.135Z,8.57
2018-04-02T15:10:05.283Z,6.60
2018-04-02T15:12:32.745Z,4.87
2018-04-02T15:15:00.974Z,4.57
2018-04-02T15:17:28.477Z,4.03
2018-04-02T15:19:56.751Z,6.50
2018-04-02T15:22:25.002Z,4.33
2018-04-02T15:24:53.328Z,4.23
2018-04-02T15:27:20.821Z,6.70
2018-04-02T15:29:48.319Z,3.40
2018-04-02T15:32:15.774Z,4.70
2018-04-02T15:34:43.291Z,5.80
2018-04-02T15:37:10.774Z,5.33
2018-04-02T15:39:38.317Z,4.50
2018-04-02T15:42:13.935Z,6.77
2018-04-02T15:44:47.843Z,6.73
2018-04-02T15:49:55.210Z,4.00
2018-04-02T15:52:22.846Z,4.87
2018-04-02T15:54:50.298Z,4.07
2018-04-02T15:57:17.771Z,7.50
2018-04-02T15:59:45.255Z,4.77
2018-04-02T16:02:13.473Z,5.67
2018-04-02T16:04:40.971Z,4.93
2018-04-02T16:07:08.431Z,6.37
2018-04-02T16:09:35.890Z,13.23
2018-04-02T16:12:04.129Z,8.50
2018-04-02T16:14:31.644Z,6.70
2018-04-02T16:16:59.115Z,9.30
2018-04-02T16:19:26.570Z,9.50
2018-04-02T16:21:54.118Z,6.83
2018-04-02T16:24:21.577Z,7.97
2018-04-02T16:26:49.060Z,7.50
2018-04-02T16:29:16.514Z,6.10
2018-04-02T16:31:44.019Z,8.03
2018-04-02T16:34:11.486Z,5.60
2018-04-02T16:36:39.727Z,9.10
2018-04-02T16:39:07.201Z,5.97
2018-04-02T16:41:34.693Z,6.03
2018-04-02T16:44:02.914Z,6.77
2018-04-02T16:46:30.445Z,4.73
2018-04-02T16:48:57.904Z,7.50
2018-04-02T16:51:25.361Z,4.33
2018-04-02T16:53:53.788Z,8.73
2018-04-02T16:56:21.247Z,9.13
2018-04-02T16:58:49.030Z,4.63
2018-04-02T17:01:17.261Z,9.00
2018-04-02T17:03:44.723Z,4.60
2018-04-02T17:06:12.251Z,5.53
2018-04-02T17:08:39.657Z,4.23
2018-04-02T17:11:07.890Z,4.47
2018-04-02T17:13:35.450Z,4.03
2018-04-02T17:16:05.542Z,6.07
2018-04-02T17:18:33.054Z,7.13
2018-04-02T17:21:00.547Z,4.20
2018-04-02T17:23:29.359Z,4.33
2018-04-02T17:25:56.822Z,4.20
2018-04-02T17:28:24.294Z,6.27
2018-04-02T17:30:51.760Z,3.33
2018-04-02T17:33:19.233Z,3.27
2018-04-02T17:35:46.740Z,5.97
2018-04-02T17:38:14.211Z,4.27
2018-04-02T17:40:41.686Z,3.20
2018-04-02T17:43:09.156Z,4.43
2018-04-02T17:45:36.615Z,6.60
2018-04-02T17:48:04.085Z,5.97
2018-04-02T17:50:32.362Z,5.20
2018-04-02T17:52:59.830Z,3.37
2018-04-02T17:55:28.079Z,3.73
2018-04-02T17:57:55.557Z,7.23
2018-04-02T18:00:23.807Z,3.03
2018-04-02T18:02:51.289Z,7.70
2018-04-02T18:05:19.516Z,5.00
2018-04-02T18:07:47.008Z,6.60
2018-04-02T18:10:14.488Z,5.37
2018-04-02T18:12:41.986Z,4.90
2018-04-02T18:15:09.467Z,2.80
2018-04-02T18:17:36.933Z,8.63
2018-04-02T18:20:04.407Z,5.40
2018-04-02T18:22:32.653Z,3.83
2018-04-02T18:25:00.114Z,6.03
2018-04-02T18:27:27.594Z,5.13
2018-04-02T18:29:55.786Z,7.17
2018-04-02T18:32:23.246Z,4.83
2018-04-02T18:34:50.734Z,4.37
2018-04-02T18:37:18.215Z,4.73
2018-04-02T18:39:45.678Z,7.93
2018-04-02T18:42:13.133Z,4.93
2018-04-02T18:44:40.598Z,5.07
2018-04-02T18:47:08.073Z,4.97
2018-04-02T18:49:36.306Z,5.73
2018-04-02T18:52:03.795Z,6.93
2018-04-02T18:54:32.258Z,5.70
2018-04-02T18:56:59.711Z,6.63
2018-04-02T18:59:27.187Z,7.67
2018-04-02T19:01:54.730Z,5.90
2018-04-02T19:04:22.202Z,7.90
2018-04-02T19:06:50.260Z,5.90
2018-04-02T19:09:17.746Z,6.30
2018-04-02T19:11:45.972Z,9.17
2018-04-02T19:14:13.943Z,5.60
2018-04-02T19:16:41.422Z,6.70
2018-04-02T19:19:08.890Z,9.47
2018-04-02T19:21:37.123Z,13.10
2018-04-02T19:24:04.591Z,5.23
2018-04-02T19:26:32.405Z,6.53
2018-04-02T19:29:00.645Z,5.47
2018-04-02T19:31:28.107Z,7.20
2018-04-02T19:33:55.595Z,7.03
2018-04-02T19:36:23.817Z,4.30
2018-04-02T19:38:51.298Z,5.63
2018-04-02T19:41:18.813Z,3.63
2018-04-02T19:43:46.268Z,5.07
2018-04-02T19:46:13.766Z,4.47
2018-04-02T19:48:41.226Z,7.17
2018-04-02T19:51:08.710Z,4.17
2018-04-02T19:53:36.201Z,5.07
2018-04-02T19:56:03.746Z,6.70
2018-04-02T19:58:31.203Z,5.40
2018-04-02T20:00:58.687Z,8.03
2018-04-02T20:03:26.187Z,6.83
2018-04-02T20:05:54.470Z,5.17
2018-04-02T20:08:21.937Z,9.23
2018-04-02T20:10:49.485Z,5.33
2018-04-02T20:13:17.714Z,5.47
2018-04-02T20:15:45.194Z,6.40
2018-04-02T20:18:12.666Z,6.60
2018-04-02T20:20:40.882Z,5.80
2018-04-02T20:23:08.450Z,6.13
2018-04-02T20:25:35.866Z,6.00
2018-04-02T20:28:03.348Z,8.00
2018-04-02T20:30:30.837Z,10.37
2018-04-02T20:32:58.286Z,6.33
2018-04-02T20:35:25.744Z,6.77
2018-04-02T20:37:54.020Z,9.23
2018-04-02T20:40:21.485Z,8.40
2018-04-02T20:42:49.707Z,7.97
2018-04-02T20:45:17.226Z,8.43
2018-04-02T20:47:44.686Z,6.77
2018-04-02T20:50:12.490Z,7.40
2018-04-02T20:52:39.946Z,12.17
2018-04-02T20:55:07.418Z,8.20
2018-04-02T20:57:34.888Z,8.37
2018-04-02T21:00:02.363Z,10.33
2018-04-02T21:02:30.613Z,8.30
2018-04-02T21:04:58.075Z,10.50
2018-04-02T21:07:25.538Z,7.93
2018-04-02T21:09:52.998Z,10.87
2018-04-02T21:12:20.457Z,8.47
2018-04-02T21:14:47.936Z,11.30
2018-04-02T21:17:15.385Z,7.63
2018-04-02T21:19:42.875Z,7.93
2018-04-02T21:22:11.110Z,7.30
2018-04-02T21:24:38.715Z,13.80
2018-04-02T21:27:06.185Z,6.87
2018-04-02T21:29:35.389Z,7.50
2018-04-02T21:32:02.841Z,7.93
2018-04-02T21:34:30.308Z,7.03
2018-04-02T21:36:57.780Z,6.90
2018-04-02T21:39:25.228Z,7.73
2018-04-02T21:41:52.680Z,6.43
2018-04-02T21:44:20.214Z,8.07
2018-04-02T21:46:48.440Z,8.00
2018-04-02T21:49:15.898Z,10.80
2018-04-02T21:51:43.362Z,9.27
2018-04-02T21:54:10.819Z,9.23
2018-04-02T21:56:38.289Z,7.17
2018-04-02T21:59:05.750Z,8.20
2018-04-02T22:01:33.974Z,8.80
2018-04-02T22:04:01.422Z,8.67
2018-04-02T22:06:40.742Z,7.43
2018-04-02T22:09:09.322Z,9.10
2018-04-02T22:11:36.825Z,11.53
2018-04-02T22:14:04.291Z,9.27
2018-04-02T22:16:31.750Z,10.07
2018-04-02T22:18:59.200Z,12.43
2018-04-02T22:21:26.669Z,9.17
2018-04-02T22:23:54.429Z,11.47
2018-04-02T22:26:21.881Z,12.27
2018-04-02T22:28:49.395Z,9.40
2018-04-02T22:31:17.581Z,13.37
2018-04-02T22:33:45.039Z,13.83
2018-04-02T22:36:12.509Z,14.13
2018-04-02T22:38:39.965Z,14.53
2018-04-02T22:41:07.425Z,13.80
2018-04-02T22:43:34.951Z,17.70
2018-04-02T22:46:02.409Z,25.40
2018-04-02T22:48:29.870Z,16.60
2018-04-02T22:50:57.342Z,19.00
2018-04-02T22:53:25.031Z,19.43
2018-04-02T22:55:53.288Z,18.40
2018-04-02T22:58:20.809Z,18.70
2018-04-02T23:00:48.270Z,19.90
2018-04-02T23:03:15.729Z,24.23
2018-04-02T23:05:43.213Z,17.87
2018-04-02T23:08:10.679Z,21.30
2018-04-02T23:10:38.133Z,18.40
2018-04-02T23:13:05.607Z,28.60
2018-04-02T23:15:33.603Z,20.73
2018-04-02T23:18:01.075Z,17.90
2018-04-02T23:20:28.533Z,20.47
2018-04-02T23:22:56.007Z,17.93
2018-04-02T23:25:23.463Z,16.90
2018-04-02T23:27:51.007Z,22.50
2018-04-02T23:30:18.460Z,19.80
2018-04-02T23:32:46.674Z,23.03
2018-04-02T23:35:14.150Z,20.83
2018-04-02T23:37:41.614Z,22.10
2018-04-02T23:40:09.081Z,21.43
2018-04-02T23:42:37.317Z,19.20
2018-04-02T23:45:04.778Z,22.27
2018-04-02T23:47:32.237Z,17.23
2018-04-02T23:49:59.716Z,18.53
2018-04-02T23:52:27.209Z,20.20
2018-04-02T23:54:55.437Z,18.80
2018-04-02T23:57:22.897Z,21.43
2018-04-02T23:59:50.366Z,20.27
